sensor_id;sensor_type;location;lat;lon;timestamp;P1;durP1;ratioP1;P2;durP2;ratioP2
1320;SDS011;653;51.480;11.992;2023-06-22T00:01:18;15.80;;;14.40;;
1320;SDS011;653;51.480;11.992;2023-06-22T00:03:45;16.40;;;14.67;;
1320;SDS011;653;51.480;11.992;2023-06-22T00:06:12;15.77;;;14.40;;
1320;SDS011;653;51.480;11.992;2023-06-22T00:08:37;14.77;;;13.57;;
1320;SDS011;653;51.480;11.992;2023-06-22T00:11:05;14.77;;;13.47;;
1320;SDS011;653;51.480;11.992;2023-06-22T00:13:32;13.83;;;12.73;;
1320;SDS011;653;51.480;11.992;2023-06-22T00:15:58;14.43;;;13.13;;
1320;SDS011;653;51.480;11.992;2023-06-22T00:18:25;16.23;;;13.37;;
1320;SDS011;653;51.480;11.992;2023-06-22T00:20:55;16.80;;;15.10;;
1320;SDS011;653;51.480;11.992;2023-06-22T00:23:27;17.20;;;15.40;;
1320;SDS011;653;51.480;11.992;2023-06-22T00:25:54;18.00;;;16.40;;
1320;SDS011;653;51.480;11.992;2023-06-22T00:28:19;18.17;;;14.93;;
1320;SDS011;653;51.480;11.992;2023-06-22T00:30:48;17.13;;;15.43;;
1320;SDS011;653;51.480;11.992;2023-06-22T00:33:15;16.50;;;15.00;;
1320;SDS011;653;51.480;11.992;2023-06-22T00:35:42;14.90;;;13.37;;
1320;SDS011;653;51.480;11.992;2023-06-22T00:38:09;15.53;;;13.90;;
1320;SDS011;653;51.480;11.992;2023-06-22T00:40:35;15.77;;;14.17;;
1320;SDS011;653;51.480;11.992;2023-06-22T00:43:04;17.77;;;16.10;;
1320;SDS011;653;51.480;11.992;2023-06-22T00:45:30;15.53;;;13.90;;
1320;SDS011;653;51.480;11.992;2023-06-22T00:47:57;15.73;;;14.20;;
1320;SDS011;653;51.480;11.992;2023-06-22T00:50:25;15.17;;;13.70;;
1320;SDS011;653;51.480;11.992;2023-06-22T00:52:56;15.60;;;14.13;;
1320;SDS011;653;51.480;11.992;2023-06-22T00:55:23;16.83;;;15.10;;
1320;SDS011;653;51.480;11.992;2023-06-22T00:57:52;14.80;;;13.40;;
1320;SDS011;653;51.480;11.992;2023-06-22T01:00:24;15.93;;;14.53;;
1320;SDS011;653;51.480;11.992;2023-06-22T01:02:51;16.73;;;14.73;;
1320;SDS011;653;51.480;11.992;2023-06-22T01:05:22;16.17;;;14.67;;
1320;SDS011;653;51.480;11.992;2023-06-22T01:16:52;16.57;;;15.03;;
1320;SDS011;653;51.480;11.992;2023-06-22T01:19:18;16.17;;;14.27;;
1320;SDS011;653;51.480;11.992;2023-06-22T01:22:07;15.67;;;14.17;;
1320;SDS011;653;51.480;11.992;2023-06-22T01:28:10;16.13;;;14.63;;
1320;SDS011;653;51.480;11.992;2023-06-22T01:30:49;16.83;;;15.23;;
1320;SDS011;653;51.480;11.992;2023-06-22T01:33:36;16.80;;;15.20;;
1320;SDS011;653;51.480;11.992;2023-06-22T01:36:04;14.57;;;13.27;;
1320;SDS011;653;51.480;11.992;2023-06-22T01:38:30;15.60;;;14.20;;
1320;SDS011;653;51.480;11.992;2023-06-22T01:40:59;17.33;;;15.73;;
1320;SDS011;653;51.480;11.992;2023-06-22T01:43:29;15.47;;;13.97;;
1320;SDS011;653;51.480;11.992;2023-06-22T01:45:57;16.40;;;14.87;;
1320;SDS011;653;51.480;11.992;2023-06-22T01:48:26;15.03;;;13.60;;
1320;SDS011;653;51.480;11.992;2023-06-22T01:50:53;16.50;;;15.00;;
1320;SDS011;653;51.480;11.992;2023-06-22T01:53:25;17.10;;;15.60;;
1320;SDS011;653;51.480;11.992;2023-06-22T01:55:50;14.53;;;13.17;;
1320;SDS011;653;51.480;11.992;2023-06-22T01:58:16;20.23;;;18.17;;
1320;SDS011;653;51.480;11.992;2023-06-22T02:00:44;18.73;;;16.83;;
1320;SDS011;653;51.480;11.992;2023-06-22T02:03:18;19.67;;;17.83;;
1320;SDS011;653;51.480;11.992;2023-06-22T02:05:53;18.70;;;16.80;;
1320;SDS011;653;51.480;11.992;2023-06-22T02:08:24;16.57;;;14.87;;
1320;SDS011;653;51.480;11.992;2023-06-22T02:10:51;18.77;;;16.77;;
1320;SDS011;653;51.480;11.992;2023-06-22T02:13:17;19.33;;;17.60;;
1320;SDS011;653;51.480;11.992;2023-06-22T02:15:45;18.43;;;16.73;;
1320;SDS011;653;51.480;11.992;2023-06-22T02:18:11;18.40;;;16.70;;
1320;SDS011;653;51.480;11.992;2023-06-22T02:20:39;22.83;;;20.60;;
1320;SDS011;653;51.480;11.992;2023-06-22T02:23:06;18.70;;;17.00;;
1320;SDS011;653;51.480;11.992;2023-06-22T02:25:32;19.33;;;17.57;;
1320;SDS011;653;51.480;11.992;2023-06-22T02:27:59;18.07;;;16.37;;
1320;SDS011;653;51.480;11.992;2023-06-22T02:30:26;24.30;;;19.90;;
1320;SDS011;653;51.480;11.992;2023-06-22T02:32:52;20.20;;;18.30;;
1320;SDS011;653;51.480;11.992;2023-06-22T02:35:29;23.57;;;21.43;;
1320;SDS011;653;51.480;11.992;2023-06-22T02:37:58;22.33;;;20.13;;
1320;SDS011;653;51.480;11.992;2023-06-22T02:40:26;23.17;;;20.70;;
1320;SDS011;653;51.480;11.992;2023-06-22T02:42:51;22.67;;;20.47;;
1320;SDS011;653;51.480;11.992;2023-06-22T02:45:17;22.10;;;19.90;;
1320;SDS011;653;51.480;11.992;2023-06-22T02:47:44;22.80;;;20.70;;
1320;SDS011;653;51.480;11.992;2023-06-22T02:50:10;22.63;;;20.33;;
1320;SDS011;653;51.480;11.992;2023-06-22T02:52:37;23.57;;;21.07;;
1320;SDS011;653;51.480;11.992;2023-06-22T02:55:06;23.97;;;21.60;;
1320;SDS011;653;51.480;11.992;2023-06-22T02:57:32;26.43;;;23.73;;
1320;SDS011;653;51.480;11.992;2023-06-22T02:59:58;26.40;;;23.07;;
1320;SDS011;653;51.480;11.992;2023-06-22T03:02:25;25.97;;;23.57;;
1320;SDS011;653;51.480;11.992;2023-06-22T03:04:52;26.73;;;24.13;;
1320;SDS011;653;51.480;11.992;2023-06-22T03:07:19;24.60;;;22.23;;
1320;SDS011;653;51.480;11.992;2023-06-22T03:09:46;26.40;;;23.80;;
1320;SDS011;653;51.480;11.992;2023-06-22T03:12:12;23.20;;;20.87;;
1320;SDS011;653;51.480;11.992;2023-06-22T03:14:38;24.97;;;22.57;;
1320;SDS011;653;51.480;11.992;2023-06-22T03:17:05;26.37;;;23.67;;
1320;SDS011;653;51.480;11.992;2023-06-22T03:19:32;23.87;;;21.57;;
1320;SDS011;653;51.480;11.992;2023-06-22T03:21:59;25.63;;;23.10;;
1320;SDS011;653;51.480;11.992;2023-06-22T03:24:26;24.33;;;21.83;;
1320;SDS011;653;51.480;11.992;2023-06-22T03:26:55;25.07;;;20.53;;
1320;SDS011;653;51.480;11.992;2023-06-22T03:29:22;26.90;;;22.30;;
1320;SDS011;653;51.480;11.992;2023-06-22T03:31:50;22.47;;;20.37;;
1320;SDS011;653;51.480;11.992;2023-06-22T03:34:16;24.47;;;22.27;;
1320;SDS011;653;51.480;11.992;2023-06-22T03:36:43;27.50;;;21.53;;
1320;SDS011;653;51.480;11.992;2023-06-22T03:39:10;22.40;;;20.20;;
1320;SDS011;653;51.480;11.992;2023-06-22T03:41:36;22.70;;;20.50;;
1320;SDS011;653;51.480;11.992;2023-06-22T03:44:02;23.80;;;20.40;;
1320;SDS011;653;51.480;11.992;2023-06-22T03:46:28;23.00;;;20.80;;
1320;SDS011;653;51.480;11.992;2023-06-22T03:48:53;21.33;;;19.33;;
1320;SDS011;653;51.480;11.992;2023-06-22T03:51:20;22.27;;;19.70;;
1320;SDS011;653;51.480;11.992;2023-06-22T03:53:47;20.97;;;18.87;;
1320;SDS011;653;51.480;11.992;2023-06-22T03:56:13;28.47;;;18.40;;
1320;SDS011;653;51.480;11.992;2023-06-22T03:58:39;19.90;;;18.00;;
1320;SDS011;653;51.480;11.992;2023-06-22T04:01:09;21.67;;;19.37;;
1320;SDS011;653;51.480;11.992;2023-06-22T04:03:38;20.87;;;18.80;;
1320;SDS011;653;51.480;11.992;2023-06-22T04:06:05;22.60;;;20.57;;
1320;SDS011;653;51.480;11.992;2023-06-22T04:08:30;21.00;;;18.77;;
1320;SDS011;653;51.480;11.992;2023-06-22T04:10:57;20.23;;;18.20;;
1320;SDS011;653;51.480;11.992;2023-06-22T04:13:24;19.10;;;17.40;;
1320;SDS011;653;51.480;11.992;2023-06-22T04:15:51;20.73;;;18.57;;
1320;SDS011;653;51.480;11.992;2023-06-22T04:18:16;18.93;;;16.67;;
1320;SDS011;653;51.480;11.992;2023-06-22T04:20:43;19.60;;;17.60;;
1320;SDS011;653;51.480;11.992;2023-06-22T04:23:11;19.20;;;16.47;;
1320;SDS011;653;51.480;11.992;2023-06-22T04:25:37;21.10;;;17.20;;
1320;SDS011;653;51.480;11.992;2023-06-22T04:28:03;21.03;;;18.90;;
1320;SDS011;653;51.480;11.992;2023-06-22T04:30:32;20.60;;;16.83;;
1320;SDS011;653;51.480;11.992;2023-06-22T04:32:59;18.80;;;16.10;;
1320;SDS011;653;51.480;11.992;2023-06-22T04:35:26;16.40;;;14.77;;
1320;SDS011;653;51.480;11.992;2023-06-22T04:37:57;17.63;;;15.93;;
1320;SDS011;653;51.480;11.992;2023-06-22T04:40:24;21.80;;;17.00;;
1320;SDS011;653;51.480;11.992;2023-06-22T04:42:51;16.80;;;15.00;;
1320;SDS011;653;51.480;11.992;2023-06-22T04:45:22;18.63;;;14.73;;
1320;SDS011;653;51.480;11.992;2023-06-22T04:47:48;16.83;;;15.27;;
1320;SDS011;653;51.480;11.992;2023-06-22T04:50:15;17.30;;;15.43;;
1320;SDS011;653;51.480;11.992;2023-06-22T04:52:42;19.60;;;17.83;;
1320;SDS011;653;51.480;11.992;2023-06-22T04:55:07;18.50;;;16.57;;
1320;SDS011;653;51.480;11.992;2023-06-22T04:57:35;18.30;;;16.30;;
1320;SDS011;653;51.480;11.992;2023-06-22T05:00:05;17.77;;;15.87;;
1320;SDS011;653;51.480;11.992;2023-06-22T05:02:43;17.00;;;15.37;;
1320;SDS011;653;51.480;11.992;2023-06-22T05:05:12;17.30;;;15.50;;
1320;SDS011;653;51.480;11.992;2023-06-22T05:07:42;19.90;;;17.90;;
1320;SDS011;653;51.480;11.992;2023-06-22T05:10:09;19.73;;;17.73;;
1320;SDS011;653;51.480;11.992;2023-06-22T05:12:37;19.47;;;17.50;;
1320;SDS011;653;51.480;11.992;2023-06-22T05:15:09;19.63;;;17.73;;
1320;SDS011;653;51.480;11.992;2023-06-22T05:17:36;22.07;;;19.17;;
1320;SDS011;653;51.480;11.992;2023-06-22T05:20:03;23.00;;;20.60;;
1320;SDS011;653;51.480;11.992;2023-06-22T05:22:33;21.17;;;19.10;;
1320;SDS011;653;51.480;11.992;2023-06-22T05:24:58;22.90;;;18.53;;
1320;SDS011;653;51.480;11.992;2023-06-22T05:27:24;22.80;;;20.70;;
1320;SDS011;653;51.480;11.992;2023-06-22T05:29:51;22.50;;;20.40;;
1320;SDS011;653;51.480;11.992;2023-06-22T05:32:16;26.53;;;22.67;;
1320;SDS011;653;51.480;11.992;2023-06-22T05:34:43;25.20;;;22.90;;
1320;SDS011;653;51.480;11.992;2023-06-22T05:37:10;26.30;;;22.20;;
1320;SDS011;653;51.480;11.992;2023-06-22T05:39:36;24.20;;;21.70;;
1320;SDS011;653;51.480;11.992;2023-06-22T05:42:07;21.37;;;19.30;;
1320;SDS011;653;51.480;11.992;2023-06-22T05:44:34;22.30;;;20.13;;
1320;SDS011;653;51.480;11.992;2023-06-22T05:47:00;24.00;;;21.60;;
1320;SDS011;653;51.480;11.992;2023-06-22T05:49:27;20.93;;;18.80;;
1320;SDS011;653;51.480;11.992;2023-06-22T05:51:59;21.70;;;19.63;;
1320;SDS011;653;51.480;11.992;2023-06-22T05:54:29;21.80;;;19.80;;
1320;SDS011;653;51.480;11.992;2023-06-22T05:56:55;21.20;;;19.30;;
1320;SDS011;653;51.480;11.992;2023-06-22T05:59:22;19.83;;;17.83;;
1320;SDS011;653;51.480;11.992;2023-06-22T06:01:48;19.47;;;17.67;;
1320;SDS011;653;51.480;11.992;2023-06-22T06:04:19;21.30;;;19.07;;
1320;SDS011;653;51.480;11.992;2023-06-22T06:06:47;20.17;;;18.10;;
1320;SDS011;653;51.480;11.992;2023-06-22T06:09:12;19.87;;;17.80;;
1320;SDS011;653;51.480;11.992;2023-06-22T06:11:40;20.63;;;17.43;;
1320;SDS011;653;51.480;11.992;2023-06-22T06:14:06;19.47;;;17.47;;
1320;SDS011;653;51.480;11.992;2023-06-22T06:16:33;16.87;;;15.20;;
1320;SDS011;653;51.480;11.992;2023-06-22T06:19:00;16.90;;;15.30;;
1320;SDS011;653;51.480;11.992;2023-06-22T06:21:26;19.57;;;16.93;;
1320;SDS011;653;51.480;11.992;2023-06-22T06:23:53;20.83;;;16.00;;
1320;SDS011;653;51.480;11.992;2023-06-22T06:26:20;18.03;;;16.23;;
1320;SDS011;653;51.480;11.992;2023-06-22T06:28:55;16.00;;;14.50;;
1320;SDS011;653;51.480;11.992;2023-06-22T06:31:22;17.30;;;15.43;;
1320;SDS011;653;51.480;11.992;2023-06-22T06:33:49;16.00;;;14.57;;
1320;SDS011;653;51.480;11.992;2023-06-22T06:36:15;15.90;;;14.40;;
1320;SDS011;653;51.480;11.992;2023-06-22T06:38:42;15.37;;;14.00;;
1320;SDS011;653;51.480;11.992;2023-06-22T06:41:09;15.43;;;14.03;;
1320;SDS011;653;51.480;11.992;2023-06-22T06:43:35;16.07;;;14.30;;
1320;SDS011;653;51.480;11.992;2023-06-22T06:46:00;15.40;;;13.83;;
1320;SDS011;653;51.480;11.992;2023-06-22T06:48:27;14.60;;;13.17;;
1320;SDS011;653;51.480;11.992;2023-06-22T06:50:54;16.27;;;14.07;;
1320;SDS011;653;51.480;11.992;2023-06-22T06:53:19;15.93;;;14.53;;
1320;SDS011;653;51.480;11.992;2023-06-22T06:55:46;15.80;;;13.67;;
1320;SDS011;653;51.480;11.992;2023-06-22T06:58:13;14.60;;;13.30;;
1320;SDS011;653;51.480;11.992;2023-06-22T07:00:39;14.70;;;13.00;;
1320;SDS011;653;51.480;11.992;2023-06-22T07:03:05;15.80;;;14.20;;
1320;SDS011;653;51.480;11.992;2023-06-22T07:05:34;14.40;;;13.20;;
1320;SDS011;653;51.480;11.992;2023-06-22T07:08:01;15.87;;;14.37;;
1320;SDS011;653;51.480;11.992;2023-06-22T07:10:29;14.00;;;12.80;;
1320;SDS011;653;51.480;11.992;2023-06-22T07:12:55;14.57;;;13.30;;
1320;SDS011;653;51.480;11.992;2023-06-22T07:15:23;15.57;;;14.07;;
1320;SDS011;653;51.480;11.992;2023-06-22T07:17:50;15.87;;;14.33;;
1320;SDS011;653;51.480;11.992;2023-06-22T07:20:16;15.70;;;14.23;;
1320;SDS011;653;51.480;11.992;2023-06-22T07:22:44;16.20;;;14.57;;
1320;SDS011;653;51.480;11.992;2023-06-22T07:25:10;15.50;;;14.17;;
1320;SDS011;653;51.480;11.992;2023-06-22T07:27:45;16.93;;;15.13;;
1320;SDS011;653;51.480;11.992;2023-06-22T07:30:11;15.83;;;14.10;;
1320;SDS011;653;51.480;11.992;2023-06-22T07:32:38;16.70;;;14.90;;
1320;SDS011;653;51.480;11.992;2023-06-22T07:35:04;16.93;;;15.20;;
1320;SDS011;653;51.480;11.992;2023-06-22T07:37:33;18.20;;;14.87;;
1320;SDS011;653;51.480;11.992;2023-06-22T07:40:02;16.67;;;15.27;;
1320;SDS011;653;51.480;11.992;2023-06-22T07:42:32;16.60;;;14.30;;
1320;SDS011;653;51.480;11.992;2023-06-22T07:44:59;15.40;;;14.00;;
1320;SDS011;653;51.480;11.992;2023-06-22T07:47:26;15.23;;;13.73;;
1320;SDS011;653;51.480;11.992;2023-06-22T07:49:54;14.83;;;13.53;;
1320;SDS011;653;51.480;11.992;2023-06-22T07:52:24;16.73;;;15.10;;
1320;SDS011;653;51.480;11.992;2023-06-22T07:54:53;15.97;;;14.57;;
1320;SDS011;653;51.480;11.992;2023-06-22T07:57:21;16.30;;;14.67;;
1320;SDS011;653;51.480;11.992;2023-06-22T07:59:46;15.80;;;14.50;;
1320;SDS011;653;51.480;11.992;2023-06-22T08:02:13;16.20;;;14.70;;
1320;SDS011;653;51.480;11.992;2023-06-22T08:04:41;16.67;;;15.07;;
1320;SDS011;653;51.480;11.992;2023-06-22T08:07:07;17.50;;;15.37;;
1320;SDS011;653;51.480;11.992;2023-06-22T08:09:34;14.97;;;13.57;;
1320;SDS011;653;51.480;11.992;2023-06-22T08:12:01;15.70;;;14.40;;
1320;SDS011;653;51.480;11.992;2023-06-22T08:14:29;15.30;;;13.90;;
1320;SDS011;653;51.480;11.992;2023-06-22T08:16:56;15.43;;;14.13;;
1320;SDS011;653;51.480;11.992;2023-06-22T08:19:23;16.63;;;14.57;;
1320;SDS011;653;51.480;11.992;2023-06-22T08:21:49;15.20;;;13.90;;
1320;SDS011;653;51.480;11.992;2023-06-22T08:24:16;15.37;;;14.17;;
1320;SDS011;653;51.480;11.992;2023-06-22T08:26:43;14.83;;;13.63;;
1320;SDS011;653;51.480;11.992;2023-06-22T08:29:09;16.37;;;14.97;;
1320;SDS011;653;51.480;11.992;2023-06-22T08:31:37;15.97;;;14.47;;
1320;SDS011;653;51.480;11.992;2023-06-22T08:34:04;15.20;;;13.90;;
1320;SDS011;653;51.480;11.992;2023-06-22T08:36:30;19.33;;;15.10;;
1320;SDS011;653;51.480;11.992;2023-06-22T08:39:04;15.47;;;14.03;;
1320;SDS011;653;51.480;11.992;2023-06-22T08:41:31;16.10;;;14.63;;
1320;SDS011;653;51.480;11.992;2023-06-22T08:43:58;17.30;;;15.80;;
1320;SDS011;653;51.480;11.992;2023-06-22T08:46:26;16.57;;;14.77;;
1320;SDS011;653;51.480;11.992;2023-06-22T08:48:56;13.80;;;12.70;;
1320;SDS011;653;51.480;11.992;2023-06-22T08:51:27;14.73;;;13.53;;
1320;SDS011;653;51.480;11.992;2023-06-22T08:53:55;15.67;;;13.87;;
1320;SDS011;653;51.480;11.992;2023-06-22T08:56:20;15.27;;;13.87;;
1320;SDS011;653;51.480;11.992;2023-06-22T08:58:47;14.63;;;13.50;;
1320;SDS011;653;51.480;11.992;2023-06-22T09:01:14;14.70;;;13.50;;
1320;SDS011;653;51.480;11.992;2023-06-22T09:03:41;15.33;;;13.67;;
1320;SDS011;653;51.480;11.992;2023-06-22T09:06:08;14.77;;;13.37;;
1320;SDS011;653;51.480;11.992;2023-06-22T09:08:40;15.23;;;13.70;;
1320;SDS011;653;51.480;11.992;2023-06-22T09:11:05;14.87;;;13.37;;
1320;SDS011;653;51.480;11.992;2023-06-22T09:13:31;13.70;;;12.50;;
1320;SDS011;653;51.480;11.992;2023-06-22T09:15:58;16.03;;;14.53;;
1320;SDS011;653;51.480;11.992;2023-06-22T09:18:26;14.30;;;13.13;;
1320;SDS011;653;51.480;11.992;2023-06-22T09:20:53;14.93;;;13.70;;
1320;SDS011;653;51.480;11.992;2023-06-22T09:23:18;13.80;;;12.80;;
1320;SDS011;653;51.480;11.992;2023-06-22T09:25:44;13.67;;;12.67;;
1320;SDS011;653;51.480;11.992;2023-06-22T09:28:11;14.50;;;13.10;;
1320;SDS011;653;51.480;11.992;2023-06-22T09:30:36;15.23;;;13.00;;
1320;SDS011;653;51.480;11.992;2023-06-22T09:33:02;13.80;;;12.57;;
1320;SDS011;653;51.480;11.992;2023-06-22T09:35:28;14.77;;;13.27;;
1320;SDS011;653;51.480;11.992;2023-06-22T09:37:55;14.43;;;13.23;;
1320;SDS011;653;51.480;11.992;2023-06-22T09:40:22;14.03;;;12.93;;
1320;SDS011;653;51.480;11.992;2023-06-22T09:42:47;13.57;;;12.37;;
1320;SDS011;653;51.480;11.992;2023-06-22T09:45:14;14.23;;;13.03;;
1320;SDS011;653;51.480;11.992;2023-06-22T09:47:39;14.57;;;13.37;;
1320;SDS011;653;51.480;11.992;2023-06-22T09:50:05;12.33;;;11.33;;
1320;SDS011;653;51.480;11.992;2023-06-22T09:52:31;14.03;;;12.73;;
1320;SDS011;653;51.480;11.992;2023-06-22T09:54:58;13.07;;;11.87;;
1320;SDS011;653;51.480;11.992;2023-06-22T09:57:24;13.30;;;12.20;;
1320;SDS011;653;51.480;11.992;2023-06-22T09:59:51;12.50;;;11.60;;
1320;SDS011;653;51.480;11.992;2023-06-22T10:02:17;13.13;;;12.10;;
1320;SDS011;653;51.480;11.992;2023-06-22T10:04:42;12.30;;;11.40;;
1320;SDS011;653;51.480;11.992;2023-06-22T10:07:07;12.53;;;11.53;;
1320;SDS011;653;51.480;11.992;2023-06-22T10:09:35;13.43;;;12.35;;
1320;SDS011;653;51.480;11.992;2023-06-22T10:12:02;13.57;;;12.60;;
1320;SDS011;653;51.480;11.992;2023-06-22T10:14:29;11.50;;;10.60;;
1320;SDS011;653;51.480;11.992;2023-06-22T10:16:54;12.80;;;11.70;;
1320;SDS011;653;51.480;11.992;2023-06-22T10:19:21;11.83;;;10.93;;
1320;SDS011;653;51.480;11.992;2023-06-22T10:21:48;11.87;;;11.03;;
1320;SDS011;653;51.480;11.992;2023-06-22T10:24:15;13.07;;;11.87;;
1320;SDS011;653;51.480;11.992;2023-06-22T10:26:41;12.40;;;11.47;;
1320;SDS011;653;51.480;11.992;2023-06-22T10:29:08;12.67;;;11.37;;
1320;SDS011;653;51.480;11.992;2023-06-22T10:31:35;12.23;;;11.03;;
1320;SDS011;653;51.480;11.992;2023-06-22T10:34:00;10.40;;;9.60;;
1320;SDS011;653;51.480;11.992;2023-06-22T10:36:28;12.47;;;10.23;;
1320;SDS011;653;51.480;11.992;2023-06-22T10:38:53;11.50;;;10.50;;
1320;SDS011;653;51.480;11.992;2023-06-22T10:41:22;11.17;;;10.33;;
1320;SDS011;653;51.480;11.992;2023-06-22T10:43:49;11.33;;;10.40;;
1320;SDS011;653;51.480;11.992;2023-06-22T10:46:15;11.80;;;10.30;;
1320;SDS011;653;51.480;11.992;2023-06-22T10:48:41;12.90;;;11.47;;
1320;SDS011;653;51.480;11.992;2023-06-22T10:51:06;10.83;;;9.93;;
1320;SDS011;653;51.480;11.992;2023-06-22T10:53:32;10.87;;;9.73;;
1320;SDS011;653;51.480;11.992;2023-06-22T10:55:59;10.10;;;9.20;;
1320;SDS011;653;51.480;11.992;2023-06-22T10:58:26;11.10;;;10.10;;
1320;SDS011;653;51.480;11.992;2023-06-22T11:00:53;11.20;;;10.00;;
1320;SDS011;653;51.480;11.992;2023-06-22T11:03:19;11.10;;;10.10;;
1320;SDS011;653;51.480;11.992;2023-06-22T11:05:46;10.97;;;9.87;;
1320;SDS011;653;51.480;11.992;2023-06-22T11:08:12;10.80;;;9.80;;
1320;SDS011;653;51.480;11.992;2023-06-22T11:10:38;10.80;;;9.70;;
1320;SDS011;653;51.480;11.992;2023-06-22T11:13:05;10.93;;;9.93;;
1320;SDS011;653;51.480;11.992;2023-06-22T11:15:36;10.20;;;9.40;;
1320;SDS011;653;51.480;11.992;2023-06-22T11:18:02;10.57;;;9.40;;
1320;SDS011;653;51.480;11.992;2023-06-22T11:20:29;9.77;;;8.97;;
1320;SDS011;653;51.480;11.992;2023-06-22T11:22:56;10.07;;;9.27;;
1320;SDS011;653;51.480;11.992;2023-06-22T11:25:21;10.70;;;9.90;;
1320;SDS011;653;51.480;11.992;2023-06-22T11:27:48;10.02;;;9.23;;
1320;SDS011;653;51.480;11.992;2023-06-22T11:30:14;10.43;;;9.53;;
1320;SDS011;653;51.480;11.992;2023-06-22T11:32:43;10.10;;;9.40;;
1320;SDS011;653;51.480;11.992;2023-06-22T11:35:08;11.00;;;10.10;;
1320;SDS011;653;51.480;11.992;2023-06-22T11:37:33;10.75;;;9.20;;
1320;SDS011;653;51.480;11.992;2023-06-22T11:40:00;10.50;;;9.38;;
1320;SDS011;653;51.480;11.992;2023-06-22T11:42:26;10.73;;;9.90;;
1320;SDS011;653;51.480;11.992;2023-06-22T11:44:51;10.60;;;9.75;;
1320;SDS011;653;51.480;11.992;2023-06-22T11:47:17;9.57;;;8.85;;
1320;SDS011;653;51.480;11.992;2023-06-22T11:49:44;10.60;;;9.80;;
1320;SDS011;653;51.480;11.992;2023-06-22T11:52:10;10.57;;;9.70;;
1320;SDS011;653;51.480;11.992;2023-06-22T11:54:36;11.05;;;10.25;;
1320;SDS011;653;51.480;11.992;2023-06-22T11:57:02;10.95;;;10.15;;
1320;SDS011;653;51.480;11.992;2023-06-22T11:59:29;9.75;;;9.07;;
1320;SDS011;653;51.480;11.992;2023-06-22T12:01:57;10.38;;;9.45;;
1320;SDS011;653;51.480;11.992;2023-06-22T12:04:24;10.77;;;10.02;;
1320;SDS011;653;51.480;11.992;2023-06-22T12:06:51;11.32;;;10.43;;
1320;SDS011;653;51.480;11.992;2023-06-22T12:09:16;10.13;;;9.43;;
1320;SDS011;653;51.480;11.992;2023-06-22T12:11:41;9.90;;;9.10;;
1320;SDS011;653;51.480;11.992;2023-06-22T12:14:08;10.73;;;9.77;;
1320;SDS011;653;51.480;11.992;2023-06-22T12:16:34;10.65;;;9.95;;
1320;SDS011;653;51.480;11.992;2023-06-22T12:19:00;10.65;;;9.85;;
1320;SDS011;653;51.480;11.992;2023-06-22T12:21:26;10.60;;;9.88;;
1320;SDS011;653;51.480;11.992;2023-06-22T12:23:54;10.88;;;10.07;;
1320;SDS011;653;51.480;11.992;2023-06-22T12:26:21;10.65;;;9.77;;
1320;SDS011;653;51.480;11.992;2023-06-22T12:28:47;10.65;;;9.85;;
1320;SDS011;653;51.480;11.992;2023-06-22T12:31:13;11.23;;;10.25;;
1320;SDS011;653;51.480;11.992;2023-06-22T12:33:39;10.70;;;10.00;;
1320;SDS011;653;51.480;11.992;2023-06-22T12:36:05;10.95;;;10.15;;
1320;SDS011;653;51.480;11.992;2023-06-22T12:38:32;10.50;;;9.50;;
1320;SDS011;653;51.480;11.992;2023-06-22T12:40:59;10.93;;;10.13;;
1320;SDS011;653;51.480;11.992;2023-06-22T12:43:26;11.73;;;10.82;;
1320;SDS011;653;51.480;11.992;2023-06-22T12:45:53;11.35;;;10.45;;
1320;SDS011;653;51.480;11.992;2023-06-22T12:48:21;10.45;;;9.65;;
1320;SDS011;653;51.480;11.992;2023-06-22T12:50:47;10.23;;;9.52;;
1320;SDS011;653;51.480;11.992;2023-06-22T12:53:13;11.80;;;10.60;;
1320;SDS011;653;51.480;11.992;2023-06-22T12:55:40;10.13;;;9.45;;
1320;SDS011;653;51.480;11.992;2023-06-22T12:58:06;10.93;;;10.13;;
1320;SDS011;653;51.480;11.992;2023-06-22T13:00:32;11.23;;;10.23;;
1320;SDS011;653;51.480;11.992;2023-06-22T13:02:59;10.85;;;9.88;;
1320;SDS011;653;51.480;11.992;2023-06-22T13:05:24;11.13;;;10.27;;
1320;SDS011;653;51.480;11.992;2023-06-22T13:07:50;10.57;;;9.68;;
1320;SDS011;653;51.480;11.992;2023-06-22T13:10:18;10.30;;;9.30;;
1320;SDS011;653;51.480;11.992;2023-06-22T13:12:44;10.00;;;9.30;;
1320;SDS011;653;51.480;11.992;2023-06-22T13:15:10;9.65;;;8.98;;
1320;SDS011;653;51.480;11.992;2023-06-22T13:17:37;11.55;;;10.68;;
1320;SDS011;653;51.480;11.992;2023-06-22T13:20:03;11.73;;;10.82;;
1320;SDS011;653;51.480;11.992;2023-06-22T13:22:33;11.18;;;10.38;;
1320;SDS011;653;51.480;11.992;2023-06-22T13:25:05;11.15;;;10.40;;
1320;SDS011;653;51.480;11.992;2023-06-22T13:27:31;11.07;;;10.23;;
1320;SDS011;653;51.480;11.992;2023-06-22T13:29:57;11.23;;;10.30;;
1320;SDS011;653;51.480;11.992;2023-06-22T13:32:24;10.85;;;10.05;;
1320;SDS011;653;51.480;11.992;2023-06-22T13:34:52;15.52;;;11.15;;
1320;SDS011;653;51.480;11.992;2023-06-22T13:37:19;11.15;;;10.15;;
1320;SDS011;653;51.480;11.992;2023-06-22T13:39:46;10.20;;;9.52;;
1320;SDS011;653;51.480;11.992;2023-06-22T13:42:11;11.00;;;9.90;;
1320;SDS011;653;51.480;11.992;2023-06-22T13:44:39;9.70;;;9.00;;
1320;SDS011;653;51.480;11.992;2023-06-22T13:47:06;10.52;;;9.57;;
1320;SDS011;653;51.480;11.992;2023-06-22T13:49:33;11.55;;;10.55;;
1320;SDS011;653;51.480;11.992;2023-06-22T13:52:01;12.15;;;10.95;;
1320;SDS011;653;51.480;11.992;2023-06-22T13:54:28;10.30;;;9.50;;
1320;SDS011;653;51.480;11.992;2023-06-22T13:56:55;10.07;;;9.13;;
1320;SDS011;653;51.480;11.992;2023-06-22T13:59:20;11.13;;;10.02;;
1320;SDS011;653;51.480;11.992;2023-06-22T14:01:47;10.65;;;9.90;;
1320;SDS011;653;51.480;11.992;2023-06-22T14:04:12;11.30;;;10.27;;
1320;SDS011;653;51.480;11.992;2023-06-22T14:06:38;9.75;;;9.05;;
1320;SDS011;653;51.480;11.992;2023-06-22T14:09:05;11.40;;;10.38;;
1320;SDS011;653;51.480;11.992;2023-06-22T14:11:33;12.55;;;11.52;;
1320;SDS011;653;51.480;11.992;2023-06-22T14:13:59;10.43;;;9.60;;
1320;SDS011;653;51.480;11.992;2023-06-22T14:16:26;10.52;;;9.73;;
1320;SDS011;653;51.480;11.992;2023-06-22T14:18:52;11.50;;;10.60;;
1320;SDS011;653;51.480;11.992;2023-06-22T14:21:21;10.10;;;9.30;;
1320;SDS011;653;51.480;11.992;2023-06-22T14:23:48;11.25;;;10.27;;
1320;SDS011;653;51.480;11.992;2023-06-22T14:26:16;12.10;;;10.85;;
1320;SDS011;653;51.480;11.992;2023-06-22T14:28:47;10.65;;;9.95;;
1320;SDS011;653;51.480;11.992;2023-06-22T14:31:14;10.98;;;9.93;;
1320;SDS011;653;51.480;11.992;2023-06-22T14:33:50;10.57;;;9.48;;
1320;SDS011;653;51.480;11.992;2023-06-22T14:36:17;12.23;;;11.13;;
1320;SDS011;653;51.480;11.992;2023-06-22T14:38:43;12.02;;;10.85;;
1320;SDS011;653;51.480;11.992;2023-06-22T14:41:11;12.75;;;11.75;;
1320;SDS011;653;51.480;11.992;2023-06-22T14:43:37;10.57;;;9.70;;
1320;SDS011;653;51.480;11.992;2023-06-22T14:46:03;11.00;;;9.98;;
1320;SDS011;653;51.480;11.992;2023-06-22T14:48:30;10.77;;;9.98;;
1320;SDS011;653;51.480;11.992;2023-06-22T14:50:55;11.25;;;10.20;;
1320;SDS011;653;51.480;11.992;2023-06-22T14:53:22;10.40;;;9.60;;
1320;SDS011;653;51.480;11.992;2023-06-22T14:55:50;11.50;;;10.60;;
1320;SDS011;653;51.480;11.992;2023-06-22T14:58:16;10.45;;;9.65;;
1320;SDS011;653;51.480;11.992;2023-06-22T15:00:41;12.05;;;11.23;;
1320;SDS011;653;51.480;11.992;2023-06-22T15:03:07;11.68;;;10.73;;